sensor_id;sensor_type;location;lat;lon;timestamp;temperature;humidity
16767;DHT22;8501;49.926;8.404;2024-03-23T00:54:20;10.40;99.90
16767;DHT22;8501;49.926;8.404;2024-03-23T00:56:46;10.40;99.90
16767;DHT22;8501;49.926;8.404;2024-03-23T00:59:11;10.40;99.90
16767;DHT22;8501;49.926;8.404;2024-03-23T01:01:37;10.40;99.90
16767;DHT22;8501;49.926;8.404;2024-03-23T01:04:03;10.30;99.90
16767;DHT22;8501;49.926;8.404;2024-03-23T01:06:28;10.30;99.90
16767;DHT22;8501;49.926;8.404;2024-03-23T01:08:54;10.30;99.90
16767;DHT22;8501;49.926;8.404;2024-03-23T01:11:19;10.40;99.90
16767;DHT22;8501;49.926;8.404;2024-03-23T01:13:45;10.30;99.90
16767;DHT22;8501;49.926;8.404;2024-03-23T01:16:10;10.40;99.90
16767;DHT22;8501;49.926;8.404;2024-03-23T01:18:36;10.40;99.90
16767;DHT22;8501;49.926;8.404;2024-03-23T01:21:02;10.50;99.90
16767;DHT22;8501;49.926;8.404;2024-03-23T01:23:27;10.40;99.90
16767;DHT22;8501;49.926;8.404;2024-03-23T01:25:53;10.30;99.90
16767;DHT22;8501;49.926;8.404;2024-03-23T01:28:20;10.30;99.90
16767;DHT22;8501;49.926;8.404;2024-03-23T01:30:45;10.30;99.90
16767;DHT22;8501;49.926;8.404;2024-03-23T01:33:11;10.30;99.90
16767;DHT22;8501;49.926;8.404;2024-03-23T01:35:37;10.40;99.90
16767;DHT22;8501;49.926;8.404;2024-03-23T01:38:03;10.40;99.90
16767;DHT22;8501;49.926;8.404;2024-03-23T01:40:29;10.40;99.90
16767;DHT22;8501;49.926;8.404;2024-03-23T01:43:05;10.50;99.90
16767;DHT22;8501;49.926;8.404;2024-03-23T01:45:31;10.40;99.90
16767;DHT22;8501;49.926;8.404;2024-03-23T01:47:58;10.40;99.90
16767;DHT22;8501;49.926;8.404;2024-03-23T01:50:24;10.50;99.90
16767;DHT22;8501;49.926;8.404;2024-03-23T01:52:51;10.50;99.90
16767;DHT22;8501;49.926;8.404;2024-03-23T01:55:16;10.50;99.90
16767;DHT22;8501;49.926;8.404;2024-03-23T01:57:42;10.40;99.90
16767;DHT22;8501;49.926;8.404;2024-03-23T02:00:08;10.40;99.90
16767;DHT22;8501;49.926;8.404;2024-03-23T02:02:47;10.30;99.90
16767;DHT22;8501;49.926;8.404;2024-03-23T02:05:13;10.30;99.90
16767;DHT22;8501;49.926;8.404;2024-03-23T02:07:39;10.30;99.90
16767;DHT22;8501;49.926;8.404;2024-03-23T02:10:09;10.30;99.90
16767;DHT22;8501;49.926;8.404;2024-03-23T02:12:43;10.40;99.90
16767;DHT22;8501;49.926;8.404;2024-03-23T02:15:09;10.30;99.90
16767;DHT22;8501;49.926;8.404;2024-03-23T02:17:35;10.30;99.90
16767;DHT22;8501;49.926;8.404;2024-03-23T02:20:02;10.10;99.90
16767;DHT22;8501;49.926;8.404;2024-03-23T02:22:38;10.10;99.90
16767;DHT22;8501;49.926;8.404;2024-03-23T02:25:05;10.10;99.90
16767;DHT22;8501;49.926;8.404;2024-03-23T02:27:31;10.10;99.90
16767;DHT22;8501;49.926;8.404;2024-03-23T02:29:57;10.10;99.90
16767;DHT22;8501;49.926;8.404;2024-03-23T02:32:22;10.20;99.90
16767;DHT22;8501;49.926;8.404;2024-03-23T02:34:48;10.20;99.90
16767;DHT22;8501;49.926;8.404;2024-03-23T02:37:13;10.20;99.90
16767;DHT22;8501;49.926;8.404;2024-03-23T02:39:39;10.20;99.90
16767;DHT22;8501;49.926;8.404;2024-03-23T02:42:05;10.20;99.90
16767;DHT22;8501;49.926;8.404;2024-03-23T02:44:30;10.10;99.90
16767;DHT22;8501;49.926;8.404;2024-03-23T02:46:56;10.10;99.90
16767;DHT22;8501;49.926;8.404;2024-03-23T02:49:21;10.10;99.90
16767;DHT22;8501;49.926;8.404;2024-03-23T02:51:47;10.00;99.90
16767;DHT22;8501;49.926;8.404;2024-03-23T02:54:14;10.00;99.90
16767;DHT22;8501;49.926;8.404;2024-03-23T02:56:39;10.00;99.90
16767;DHT22;8501;49.926;8.404;2024-03-23T02:59:05;9.90;99.90
16767;DHT22;8501;49.926;8.404;2024-03-23T03:01:30;10.00;99.90
16767;DHT22;8501;49.926;8.404;2024-03-23T03:03:56;10.10;99.90
16767;DHT22;8501;49.926;8.404;2024-03-23T03:06:25;10.10;99.90
16767;DHT22;8501;49.926;8.404;2024-03-23T03:08:50;10.20;99.90
16767;DHT22;8501;49.926;8.404;2024-03-23T03:11:16;10.20;99.90
16767;DHT22;8501;49.926;8.404;2024-03-23T03:13:41;10.10;99.90
16767;DHT22;8501;49.926;8.404;2024-03-23T03:16:10;10.20;99.90
16767;DHT22;8501;49.926;8.404;2024-03-23T03:18:36;10.20;99.90
16767;DHT22;8501;49.926;8.404;2024-03-23T03:21:02;10.30;99.90
16767;DHT22;8501;49.926;8.404;2024-03-23T03:23:28;10.20;99.90
16767;DHT22;8501;49.926;8.404;2024-03-23T03:25:54;10.20;99.90
16767;DHT22;8501;49.926;8.404;2024-03-23T03:28:20;10.20;99.90
16767;DHT22;8501;49.926;8.404;2024-03-23T03:30:45;10.20;99.90
16767;DHT22;8501;49.926;8.404;2024-03-23T03:33:11;10.20;99.90
16767;DHT22;8501;49.926;8.404;2024-03-23T03:35:36;10.20;99.90
16767;DHT22;8501;49.926;8.404;2024-03-23T03:38:04;10.30;99.90
16767;DHT22;8501;49.926;8.404;2024-03-23T03:40:29;10.30;99.90
16767;DHT22;8501;49.926;8.404;2024-03-23T03:42:55;10.30;99.90
16767;DHT22;8501;49.926;8.404;2024-03-23T03:45:21;10.30;99.90
16767;DHT22;8501;49.926;8.404;2024-03-23T03:47:46;10.30;99.90
16767;DHT22;8501;49.926;8.404;2024-03-23T03:50:12;10.20;99.90
16767;DHT22;8501;49.926;8.404;2024-03-23T03:52:37;10.20;99.90
16767;DHT22;8501;49.926;8.404;2024-03-23T03:55:03;10.20;99.90
16767;DHT22;8501;49.926;8.404;2024-03-23T03:57:29;10.30;99.90
16767;DHT22;8501;49.926;8.404;2024-03-23T03:59:54;10.30;99.90
16767;DHT22;8501;49.926;8.404;2024-03-23T04:02:20;10.40;99.90
16767;DHT22;8501;49.926;8.404;2024-03-23T04:04:45;10.40;99.90
16767;DHT22;8501;49.926;8.404;2024-03-23T04:07:11;10.50;99.90
16767;DHT22;8501;49.926;8.404;2024-03-23T04:09:36;10.50;99.90
16767;DHT22;8501;49.926;8.404;2024-03-23T04:12:02;10.50;99.90
16767;DHT22;8501;49.926;8.404;2024-03-23T04:14:28;10.40;99.90
16767;DHT22;8501;49.926;8.404;2024-03-23T04:16:53;10.50;99.90
16767;DHT22;8501;49.926;8.404;2024-03-23T04:19:18;10.40;99.90
16767;DHT22;8501;49.926;8.404;2024-03-23T04:21:46;10.30;99.90
16767;DHT22;8501;49.926;8.404;2024-03-23T04:24:11;10.40;99.90
16767;DHT22;8501;49.926;8.404;2024-03-23T04:26:41;10.40;99.90
16767;DHT22;8501;49.926;8.404;2024-03-23T04:29:07;10.40;99.90
16767;DHT22;8501;49.926;8.404;2024-03-23T04:31:32;10.40;99.90
16767;DHT22;8501;49.926;8.404;2024-03-23T04:34:00;10.30;99.90
16767;DHT22;8501;49.926;8.404;2024-03-23T04:36:26;10.30;99.90
16767;DHT22;8501;49.926;8.404;2024-03-23T04:38:51;10.20;99.90
16767;DHT22;8501;49.926;8.404;2024-03-23T04:41:18;10.20;99.90
16767;DHT22;8501;49.926;8.404;2024-03-23T04:43:43;10.20;99.90
16767;DHT22;8501;49.926;8.404;2024-03-23T04:46:09;10.10;99.90
16767;DHT22;8501;49.926;8.404;2024-03-23T04:48:35;10.10;99.90
16767;DHT22;8501;49.926;8.404;2024-03-23T04:51:01;10.10;99.90
16767;DHT22;8501;49.926;8.404;2024-03-23T04:53:27;10.00;99.90
16767;DHT22;8501;49.926;8.404;2024-03-23T04:55:58;10.00;99.90
16767;DHT22;8501;49.926;8.404;2024-03-23T04:58:27;9.90;99.90
16767;DHT22;8501;49.926;8.404;2024-03-23T05:00:54;9.90;99.90
16767;DHT22;8501;49.926;8.404;2024-03-23T05:03:19;9.90;99.90
16767;DHT22;8501;49.926;8.404;2024-03-23T05:05:46;9.90;99.90
16767;DHT22;8501;49.926;8.404;2024-03-23T05:08:12;9.90;99.90
16767;DHT22;8501;49.926;8.404;2024-03-23T05:10:38;9.90;99.90
16767;DHT22;8501;49.926;8.404;2024-03-23T05:13:03;9.80;99.90
16767;DHT22;8501;49.926;8.404;2024-03-23T05:15:29;9.80;99.90
16767;DHT22;8501;49.926;8.404;2024-03-23T05:17:55;9.70;99.90
16767;DHT22;8501;49.926;8.404;2024-03-23T05:20:21;9.60;99.90
16767;DHT22;8501;49.926;8.404;2024-03-23T05:22:46;9.50;99.90
16767;DHT22;8501;49.926;8.404;2024-03-23T05:25:12;9.60;99.90
16767;DHT22;8501;49.926;8.404;2024-03-23T05:27:37;9.40;99.90
16767;DHT22;8501;49.926;8.404;2024-03-23T05:30:04;9.40;99.90
16767;DHT22;8501;49.926;8.404;2024-03-23T05:32:31;9.30;99.90
16767;DHT22;8501;49.926;8.404;2024-03-23T05:34:56;9.30;99.90
16767;DHT22;8501;49.926;8.404;2024-03-23T05:37:22;9.30;99.90
16767;DHT22;8501;49.926;8.404;2024-03-23T05:39:48;9.30;99.90
16767;DHT22;8501;49.926;8.404;2024-03-23T05:42:18;9.20;99.90
16767;DHT22;8501;49.926;8.404;2024-03-23T05:44:45;9.10;99.90
16767;DHT22;8501;49.926;8.404;2024-03-23T05:47:10;9.20;99.90
16767;DHT22;8501;49.926;8.404;2024-03-23T05:49:38;9.10;99.90
16767;DHT22;8501;49.926;8.404;2024-03-23T05:52:03;9.10;99.90
16767;DHT22;8501;49.926;8.404;2024-03-23T05:54:29;9.10;99.90
16767;DHT22;8501;49.926;8.404;2024-03-23T05:56:55;9.00;99.90
16767;DHT22;8501;49.926;8.404;2024-03-23T05:59:21;9.00;99.90
16767;DHT22;8501;49.926;8.404;2024-03-23T06:01:49;9.00;99.90
16767;DHT22;8501;49.926;8.404;2024-03-23T06:04:15;9.00;99.90
16767;DHT22;8501;49.926;8.404;2024-03-23T06:06:40;9.00;99.90
16767;DHT22;8501;49.926;8.404;2024-03-23T06:09:06;8.90;99.90
16767;DHT22;8501;49.926;8.404;2024-03-23T06:11:31;8.90;99.90
16767;DHT22;8501;49.926;8.404;2024-03-23T06:13:57;8.90;99.90
16767;DHT22;8501;49.926;8.404;2024-03-23T06:16:22;8.90;99.90
16767;DHT22;8501;49.926;8.404;2024-03-23T06:18:52;8.80;99.90
16767;DHT22;8501;49.926;8.404;2024-03-23T06:21:18;8.90;99.90
16767;DHT22;8501;49.926;8.404;2024-03-23T06:23:44;8.90;99.90
16767;DHT22;8501;49.926;8.404;2024-03-23T06:26:19;8.90;99.90
16767;DHT22;8501;49.926;8.404;2024-03-23T06:28:45;9.00;99.90
16767;DHT22;8501;49.926;8.404;2024-03-23T06:31:11;8.80;99.90
16767;DHT22;8501;49.926;8.404;2024-03-23T06:33:37;8.80;99.90
16767;DHT22;8501;49.926;8.404;2024-03-23T06:36:07;8.70;99.90
16767;DHT22;8501;49.926;8.404;2024-03-23T06:38:34;8.60;99.90
16767;DHT22;8501;49.926;8.404;2024-03-23T06:41:02;8.60;99.90
16767;DHT22;8501;49.926;8.404;2024-03-23T06:43:28;8.70;99.90
16767;DHT22;8501;49.926;8.404;2024-03-23T06:45:54;8.70;99.90
16767;DHT22;8501;49.926;8.404;2024-03-23T06:48:20;8.70;99.90
16767;DHT22;8501;49.926;8.404;2024-03-23T06:50:46;8.70;99.90
16767;DHT22;8501;49.926;8.404;2024-03-23T06:53:12;8.70;99.90
16767;DHT22;8501;49.926;8.404;2024-03-23T06:55:38;8.80;99.90
16767;DHT22;8501;49.926;8.404;2024-03-23T06:58:04;8.80;99.90
16767;DHT22;8501;49.926;8.404;2024-03-23T07:00:30;8.80;99.90
16767;DHT22;8501;49.926;8.404;2024-03-23T07:02:55;8.80;99.90
16767;DHT22;8501;49.926;8.404;2024-03-23T07:05:21;8.80;99.90
16767;DHT22;8501;49.926;8.404;2024-03-23T07:07:46;8.60;99.90
16767;DHT22;8501;49.926;8.404;2024-03-23T07:10:12;8.60;99.90
16767;DHT22;8501;49.926;8.404;2024-03-23T07:12:37;8.50;99.90
16767;DHT22;8501;49.926;8.404;2024-03-23T07:15:03;8.50;99.90
16767;DHT22;8501;49.926;8.404;2024-03-23T07:17:29;8.50;99.90
16767;DHT22;8501;49.926;8.404;2024-03-23T07:19:54;8.60;99.90
16767;DHT22;8501;49.926;8.404;2024-03-23T07:22:20;8.70;99.90
16767;DHT22;8501;49.926;8.404;2024-03-23T07:24:45;8.70;99.90
16767;DHT22;8501;49.926;8.404;2024-03-23T07:27:11;8.80;99.90
16767;DHT22;8501;49.926;8.404;2024-03-23T07:29:37;8.80;99.90
16767;DHT22;8501;49.926;8.404;2024-03-23T07:32:02;8.80;99.90
16767;DHT22;8501;49.926;8.404;2024-03-23T07:34:28;8.80;99.90
16767;DHT22;8501;49.926;8.404;2024-03-23T07:36:54;8.80;99.90
16767;DHT22;8501;49.926;8.404;2024-03-23T07:39:19;8.80;99.90
16767;DHT22;8501;49.926;8.404;2024-03-23T07:41:45;8.80;99.90
16767;DHT22;8501;49.926;8.404;2024-03-23T07:44:11;8.80;99.90
16767;DHT22;8501;49.926;8.404;2024-03-23T07:46:36;8.90;99.90
16767;DHT22;8501;49.926;8.404;2024-03-23T07:49:03;8.80;99.90
16767;DHT22;8501;49.926;8.404;2024-03-23T07:51:29;8.80;99.90
16767;DHT22;8501;49.926;8.404;2024-03-23T07:53:55;8.80;99.90
16767;DHT22;8501;49.926;8.404;2024-03-23T07:56:20;8.80;99.90
16767;DHT22;8501;49.926;8.404;2024-03-23T07:58:47;8.80;99.90
16767;DHT22;8501;49.926;8.404;2024-03-23T08:01:15;8.70;99.90
16767;DHT22;8501;49.926;8.404;2024-03-23T08:03:42;8.60;99.90
16767;DHT22;8501;49.926;8.404;2024-03-23T08:06:12;8.70;99.90
16767;DHT22;8501;49.926;8.404;2024-03-23T08:08:38;8.80;99.90
16767;DHT22;8501;49.926;8.404;2024-03-23T08:11:04;8.90;99.90
16767;DHT22;8501;49.926;8.404;2024-03-23T08:13:30;9.00;99.90
16767;DHT22;8501;49.926;8.404;2024-03-23T08:15:57;9.10;99.90
16767;DHT22;8501;49.926;8.404;2024-03-23T08:18:23;9.10;99.90
16767;DHT22;8501;49.926;8.404;2024-03-23T08:20:58;9.10;99.90
16767;DHT22;8501;49.926;8.404;2024-03-23T08:23:25;9.20;99.90
16767;DHT22;8501;49.926;8.404;2024-03-23T08:25:52;9.30;99.90
16767;DHT22;8501;49.926;8.404;2024-03-23T08:28:17;9.30;99.90
16767;DHT22;8501;49.926;8.404;2024-03-23T08:30:43;9.50;99.90
16767;DHT22;8501;49.926;8.404;2024-03-23T08:33:08;9.50;99.90
16767;DHT22;8501;49.926;8.404;2024-03-23T08:35:34;9.60;99.90
16767;DHT22;8501;49.926;8.404;2024-03-23T08:38:00;9.50;99.90
16767;DHT22;8501;49.926;8.404;2024-03-23T08:40:25;9.50;99.90
16767;DHT22;8501;49.926;8.404;2024-03-23T08:42:51;9.50;99.90
16767;DHT22;8501;49.926;8.404;2024-03-23T08:45:17;9.60;99.90
16767;DHT22;8501;49.926;8.404;2024-03-23T08:47:42;9.60;99.90
16767;DHT22;8501;49.926;8.404;2024-03-23T08:50:08;9.60;99.90
16767;DHT22;8501;49.926;8.404;2024-03-23T08:52:33;9.70;99.90
16767;DHT22;8501;49.926;8.404;2024-03-23T08:54:59;9.70;99.90
16767;DHT22;8501;49.926;8.404;2024-03-23T08:57:25;9.80;99.90
16767;DHT22;8501;49.926;8.404;2024-03-23T08:59:50;9.90;99.90
16767;DHT22;8501;49.926;8.404;2024-03-23T09:02:16;10.00;99.90
16767;DHT22;8501;49.926;8.404;2024-03-23T09:04:42;10.00;99.90
16767;DHT22;8501;49.926;8.404;2024-03-23T09:07:07;10.00;99.90
16767;DHT22;8501;49.926;8.404;2024-03-23T09:09:33;10.10;99.90
16767;DHT22;8501;49.926;8.404;2024-03-23T09:11:59;10.10;99.90
16767;DHT22;8501;49.926;8.404;2024-03-23T09:14:24;10.10;99.90
16767;DHT22;8501;49.926;8.404;2024-03-23T09:16:50;10.10;99.90
16767;DHT22;8501;49.926;8.404;2024-03-23T09:19:17;10.20;99.90
16767;DHT22;8501;49.926;8.404;2024-03-23T09:21:43;10.20;99.90
16767;DHT22;8501;49.926;8.404;2024-03-23T09:24:08;10.20;99.90
16767;DHT22;8501;49.926;8.404;2024-03-23T09:26:34;10.20;99.90
16767;DHT22;8501;49.926;8.404;2024-03-23T09:29:00;10.20;99.90
16767;DHT22;8501;49.926;8.404;2024-03-23T09:31:25;10.10;99.90
16767;DHT22;8501;49.926;8.404;2024-03-23T09:33:51;10.20;99.90
16767;DHT22;8501;49.926;8.404;2024-03-23T09:36:16;10.20;99.90
16767;DHT22;8501;49.926;8.404;2024-03-23T09:38:42;10.20;99.90
16767;DHT22;8501;49.926;8.404;2024-03-23T09:41:08;10.30;99.90
16767;DHT22;8501;49.926;8.404;2024-03-23T09:43:35;10.40;99.90
16767;DHT22;8501;49.926;8.404;2024-03-23T09:46:01;10.30;99.90
16767;DHT22;8501;49.926;8.404;2024-03-23T09:48:28;10.40;99.90
16767;DHT22;8501;49.926;8.404;2024-03-23T09:50:57;10.50;99.90
16767;DHT22;8501;49.926;8.404;2024-03-23T09:53:22;10.50;99.90
16767;DHT22;8501;49.926;8.404;2024-03-23T09:55:48;10.50;99.90
16767;DHT22;8501;49.926;8.404;2024-03-23T09:58:18;10.40;99.90
16767;DHT22;8501;49.926;8.404;2024-03-23T10:00:44;10.40;99.90
16767;DHT22;8501;49.926;8.404;2024-03-23T10:03:10;10.40;99.90
16767;DHT22;8501;49.926;8.404;2024-03-23T10:05:37;10.40;99.90
16767;DHT22;8501;49.926;8.404;2024-03-23T10:10:41;10.50;99.90
16767;DHT22;8501;49.926;8.404;2024-03-23T10:13:07;10.50;99.90
16767;DHT22;8501;49.926;8.404;2024-03-23T10:15:36;10.60;99.90
16767;DHT22;8501;49.926;8.404;2024-03-23T10:18:20;10.70;99.90
16767;DHT22;8501;49.926;8.404;2024-03-23T10:23:32;10.50;99.90
16767;DHT22;8501;49.926;8.404;2024-03-23T10:26:21;10.50;99.90
16767;DHT22;8501;49.926;8.404;2024-03-23T10:28:57;10.70;99.90
16767;DHT22;8501;49.926;8.404;2024-03-23T10:31:26;10.70;99.90
16767;DHT22;8501;49.926;8.404;2024-03-23T10:33:51;10.70;99.90
16767;DHT22;8501;49.926;8.404;2024-03-23T10:36:20;10.50;99.90
16767;DHT22;8501;49.926;8.404;2024-03-23T10:38:46;10.20;99.90
16767;DHT22;8501;49.926;8.404;2024-03-23T10:41:12;9.90;99.90
16767;DHT22;8501;49.926;8.404;2024-03-23T10:43:39;9.60;99.90
16767;DHT22;8501;49.926;8.404;2024-03-23T10:46:06;9.40;99.90
16767;DHT22;8501;49.926;8.404;2024-03-23T10:48:32;9.20;99.90
16767;DHT22;8501;49.926;8.404;2024-03-23T10:50:58;8.90;99.90
16767;DHT22;8501;49.926;8.404;2024-03-23T10:53:26;8.60;99.90
16767;DHT22;8501;49.926;8.404;2024-03-23T10:55:52;8.20;99.90
16767;DHT22;8501;49.926;8.404;2024-03-23T10:58:26;8.20;99.90
16767;DHT22;8501;49.926;8.404;2024-03-23T11:00:53;8.30;99.90
16767;DHT22;8501;49.926;8.404;2024-03-23T11:03:33;8.30;99.90
16767;DHT22;8501;49.926;8.404;2024-03-23T11:05:59;8.30;99.90
16767;DHT22;8501;49.926;8.404;2024-03-23T11:08:33;7.90;99.90
16767;DHT22;8501;49.926;8.404;2024-03-23T11:11:20;7.90;99.90
16767;DHT22;8501;49.926;8.404;2024-03-23T11:13:50;8.00;99.90
16767;DHT22;8501;49.926;8.404;2024-03-23T11:16:16;8.00;99.90
16767;DHT22;8501;49.926;8.404;2024-03-23T11:18:43;8.00;99.90
16767;DHT22;8501;49.926;8.404;2024-03-23T11:21:10;7.90;99.90
16767;DHT22;8501;49.926;8.404;2024-03-23T11:23:35;7.90;99.90
16767;DHT22;8501;49.926;8.404;2024-03-23T11:26:01;7.80;99.90
16767;DHT22;8501;49.926;8.404;2024-03-23T11:28:27;7.70;99.90
16767;DHT22;8501;49.926;8.404;2024-03-23T11:30:52;8.00;99.90
16767;DHT22;8501;49.926;8.404;2024-03-23T11:33:18;8.30;99.90
16767;DHT22;8501;49.926;8.404;2024-03-23T11:35:44;8.40;99.90
16767;DHT22;8501;49.926;8.404;2024-03-23T11:38:15;8.60;99.90
16767;DHT22;8501;49.926;8.404;2024-03-23T11:40:42;8.70;99.90
16767;DHT22;8501;49.926;8.404;2024-03-23T11:43:13;8.90;99.90
16767;DHT22;8501;49.926;8.404;2024-03-23T11:48:12;9.40;99.90
16767;DHT22;8501;49.926;8.404;2024-03-23T11:50:40;9.60;99.90
16767;DHT22;8501;49.926;8.404;2024-03-23T11:53:20;9.70;99.90
16767;DHT22;8501;49.926;8.404;2024-03-23T11:58:13;9.90;99.90
16767;DHT22;8501;49.926;8.404;2024-03-23T12:00:39;10.00;99.90
16767;DHT22;8501;49.926;8.404;2024-03-23T12:03:05;10.20;99.90
16767;DHT22;8501;49.926;8.404;2024-03-23T12:05:32;10.30;99.90
16767;DHT22;8501;49.926;8.404;2024-03-23T12:11:05;10.50;99.90
16767;DHT22;8501;49.926;8.404;2024-03-23T12:13:30;10.60;99.90
16767;DHT22;8501;49.926;8.404;2024-03-23T12:16:16;10.80;99.90
16767;DHT22;8501;49.926;8.404;2024-03-23T12:18:43;10.90;99.90
16767;DHT22;8501;49.926;8.404;2024-03-23T12:21:09;11.00;99.90
16767;DHT22;8501;49.926;8.404;2024-03-23T12:23:35;11.10;99.90
16767;DHT22;8501;49.926;8.404;2024-03-23T12:26:01;11.20;99.90
16767;DHT22;8501;49.926;8.404;2024-03-23T12:28:27;11.20;99.90
16767;DHT22;8501;49.926;8.404;2024-03-23T12:30:53;11.10;99.90
16767;DHT22;8501;49.926;8.404;2024-03-23T12:33:19;11.10;99.90
16767;DHT22;8501;49.926;8.404;2024-03-23T12:35:45;11.10;99.90
16767;DHT22;8501;49.926;8.404;2024-03-23T12:38:10;11.00;99.90
16767;DHT22;8501;49.926;8.404;2024-03-23T12:40:36;11.10;99.90
16767;DHT22;8501;49.926;8.404;2024-03-23T12:43:01;11.30;99.90
16767;DHT22;8501;49.926;8.404;2024-03-23T12:45:27;11.40;99.90
16767;DHT22;8501;49.926;8.404;2024-03-23T12:47:53;11.40;99.90
16767;DHT22;8501;49.926;8.404;2024-03-23T12:50:19;11.40;99.90
16767;DHT22;8501;49.926;8.404;2024-03-23T12:52:45;11.20;99.90
16767;DHT22;8501;49.926;8.404;2024-03-23T12:55:10;11.00;99.90
16767;DHT22;8501;49.926;8.404;2024-03-23T12:57:36;11.00;99.90
16767;DHT22;8501;49.926;8.404;2024-03-23T13:00:02;10.90;99.90
16767;DHT22;8501;49.926;8.404;2024-03-23T13:02:29;10.30;99.90
16767;DHT22;8501;49.926;8.404;2024-03-23T13:04:55;9.40;99.90
16767;DHT22;8501;49.926;8.404;2024-03-23T13:07:22;8.80;99.90
16767;DHT22;8501;49.926;8.404;2024-03-23T13:09:50;8.70;99.90
16767;DHT22;8501;49.926;8.404;2024-03-23T13:12:16;8.60;99.90
16767;DHT22;8501;49.926;8.404;2024-03-23T13:14:44;8.70;99.90
16767;DHT22;8501;49.926;8.404;2024-03-23T13:17:09;8.90;99.90
16767;DHT22;8501;49.926;8.404;2024-03-23T13:19:35;9.00;99.90
16767;DHT22;8501;49.926;8.404;2024-03-23T13:22:01;9.10;99.90
16767;DHT22;8501;49.926;8.404;2024-03-23T13:24:27;9.30;99.90
16767;DHT22;8501;49.926;8.404;2024-03-23T13:26:54;9.50;99.90
16767;DHT22;8501;49.926;8.404;2024-03-23T13:29:20;9.50;99.90
16767;DHT22;8501;49.926;8.404;2024-03-23T13:31:46;9.70;99.90
16767;DHT22;8501;49.926;8.404;2024-03-23T13:34:13;9.90;99.90
16767;DHT22;8501;49.926;8.404;2024-03-23T13:36:44;10.00;99.90
16767;DHT22;8501;49.926;8.404;2024-03-23T13:39:10;10.10;99.90
16767;DHT22;8501;49.926;8.404;2024-03-23T13:41:44;10.00;99.90
16767;DHT22;8501;49.926;8.404;2024-03-23T13:44:13;10.00;99.90
16767;DHT22;8501;49.926;8.404;2024-03-23T13:46:40;10.20;99.90
16767;DHT22;8501;49.926;8.404;2024-03-23T13:49:06;10.30;99.90
16767;DHT22;8501;49.926;8.404;2024-03-23T13:51:32;10.40;99.90
16767;DHT22;8501;49.926;8.404;2024-03-23T13:53:58;10.50;99.90
16767;DHT22;8501;49.926;8.404;2024-03-23T13:56:29;10.60;99.90
16767;DHT22;8501;49.926;8.404;2024-03-23T13:58:56;10.80;99.90
16767;DHT22;8501;49.926;8.404;2024-03-23T14:01:22;10.80;99.90
16767;DHT22;8501;49.926;8.404;2024-03-23T14:03:48;10.80;99.90
16767;DHT22;8501;49.926;8.404;2024-03-23T14:06:13;10.70;99.90
16767;DHT22;8501;49.926;8.404;2024-03-23T14:08:39;10.50;99.90
16767;DHT22;8501;49.926;8.404;2024-03-23T14:11:08;10.50;99.90
16767;DHT22;8501;49.926;8.404;2024-03-23T14:13:34;10.40;99.90
16767;DHT22;8501;49.926;8.404;2024-03-23T14:16:00;10.50;99.90
16767;DHT22;8501;49.926;8.404;2024-03-23T14:18:26;10.50;99.90
16767;DHT22;8501;49.926;8.404;2024-03-23T14:20:52;10.70;99.90
16767;DHT22;8501;49.926;8.404;2024-03-23T14:23:19;10.80;99.90
16767;DHT22;8501;49.926;8.404;2024-03-23T14:25:44;11.10;99.90
16767;DHT22;8501;49.926;8.404;2024-03-23T14:28:10;11.10;99.90
16767;DHT22;8501;49.926;8.404;2024-03-23T14:30:40;10.90;99.90
16767;DHT22;8501;49.926;8.404;2024-03-23T14:33:06;11.10;99.90
16767;DHT22;8501;49.926;8.404;2024-03-23T14:35:31;12.00;99.90
16767;DHT22;8501;49.926;8.404;2024-03-23T14:37:58;12.70;99.90
16767;DHT22;8501;49.926;8.404;2024-03-23T14:40:24;13.10;99.90
16767;DHT22;8501;49.926;8.404;2024-03-23T14:42:53;13.50;99.90
16767;DHT22;8501;49.926;8.404;2024-03-23T14:45:18;13.70;99.90
16767;DHT22;8501;49.926;8.404;2024-03-23T14:47:44;13.10;99.90
16767;DHT22;8501;49.926;8.404;2024-03-23T14:50:10;12.90;99.90
16767;DHT22;8501;49.926;8.404;2024-03-23T14:52:39;12.90;99.90
16767;DHT22;8501;49.926;8.404;2024-03-23T14:55:05;12.90;99.90
16767;DHT22;8501;49.926;8.404;2024-03-23T14:57:30;13.30;99.90
16767;DHT22;8501;49.926;8.404;2024-03-23T14:59:56;13.40;99.90
16767;DHT22;8501;49.926;8.404;2024-03-23T15:02:21;13.60;99.90
16767;DHT22;8501;49.926;8.404;2024-03-23T15:04:47;13.30;99.90
16767;DHT22;8501;49.926;8.404;2024-03-23T15:07:12;13.80;99.90
16767;DHT22;8501;49.926;8.404;2024-03-23T15:09:38;13.80;99.90
16767;DHT22;8501;49.926;8.404;2024-03-23T15:12:04;12.90;99.90
16767;DHT22;8501;49.926;8.404;2024-03-23T15:14:29;12.50;99.90
16767;DHT22;8501;49.926;8.404;2024-03-23T15:16:55;12.30;99.90
16767;DHT22;8501;49.926;8.404;2024-03-23T15:19:20;12.00;99.90
16767;DHT22;8501;49.926;8.404;2024-03-23T15:21:46;11.80;99.90
16767;DHT22;8501;49.926;8.404;2024-03-23T15:24:11;11.50;99.90
16767;DHT22;8501;49.926;8.404;2024-03-23T15:26:37;11.30;99.90
16767;DHT22;8501;49.926;8.404;2024-03-23T15:29:03;11.00;99.90
16767;DHT22;8501;49.926;8.404;2024-03-23T15:31:35;10.80;99.90
16767;DHT22;8501;49.926;8.404;2024-03-23T15:34:01;10.50;99.90
16767;DHT22;8501;49.926;8.404;2024-03-23T15:36:26;10.50;99.90
16767;DHT22;8501;49.926;8.404;2024-03-23T15:38:52;10.30;99.90
16767;DHT22;8501;49.926;8.404;2024-03-23T15:41:20;10.00;99.90
16767;DHT22;8501;49.926;8.404;2024-03-23T15:43:48;10.00;99.90
16767;DHT22;8501;49.926;8.404;2024-03-23T15:46:14;10.00;99.90
16767;DHT22;8501;49.926;8.404;2024-03-23T15:48:40;10.00;99.90
16767;DHT22;8501;49.926;8.404;2024-03-23T15:51:11;10.00;99.90
16767;DHT22;8501;49.926;8.404;2024-03-23T15:53:36;10.00;99.90
16767;DHT22;8501;49.926;8.404;2024-03-23T15:56:03;10.00;99.90
16767;DHT22;8501;49.926;8.404;2024-03-23T15:58:31;10.10;99.90
16767;DHT22;8501;49.926;8.404;2024-03-23T16:01:07;10.10;99.90
16767;DHT22;8501;49.926;8.404;2024-03-23T16:03:36;10.00;99.90
16767;DHT22;8501;49.926;8.404;2024-03-23T16:06:04;9.90;99.90
16767;DHT22;8501;49.926;8.404;2024-03-23T16:08:30;10.00;99.90
16767;DHT22;8501;49.926;8.404;2024-03-23T16:11:03;9.80;99.90
16767;DHT22;8501;49.926;8.404;2024-03-23T16:13:30;9.80;99.90
16767;DHT22;8501;49.926;8.404;2024-03-23T16:18:22;9.80;99.90
16767;DHT22;8501;49.926;8.404;2024-03-23T16:20:58;9.80;99.90
16767;DHT22;8501;49.926;8.404;2024-03-23T16:23:25;9.80;99.90
16767;DHT22;8501;49.926;8.404;2024-03-23T16:25:52;9.80;99.90
16767;DHT22;8501;49.926;8.404;2024-03-23T16:28:37;9.90;99.90
16767;DHT22;8501;49.926;8.404;2024-03-23T16:31:04;9.90;99.90
16767;DHT22;8501;49.926;8.404;2024-03-23T16:33:30;9.90;99.90
16767;DHT22;8501;49.926;8.404;2024-03-23T16:35:57;9.80;99.90
16767;DHT22;8501;49.926;8.404;2024-03-23T16:38:23;9.90;99.90
16767;DHT22;8501;49.926;8.404;2024-03-23T16:41:04;9.90;99.90
16767;DHT22;8501;49.926;8.404;2024-03-23T16:43:30;9.80;99.90
16767;DHT22;8501;49.926;8.404;2024-03-23T16:46:01;9.60;99.90
16767;DHT22;8501;49.926;8.404;2024-03-23T16:48:29;9.50;99.90
16767;DHT22;8501;49.926;8.404;2024-03-23T16:51:01;9.40;99.90
16767;DHT22;8501;49.926;8.404;2024-03-23T16:53:29;9.40;99.90
16767;DHT22;8501;49.926;8.404;2024-03-23T16:55:56;9.40;99.90
16767;DHT22;8501;49.926;8.404;2024-03-23T16:58:26;9.40;99.90